sensor_id;sensor_type;location;lat;lon;timestamp;P1;durP1;ratioP1;P2;durP2;ratioP2
12788;SDS011;6458;42.710;23.192;2023-02-07T00:02:04;3.75;;;3.55;;
12788;SDS011;6458;42.710;23.192;2023-02-07T00:04:31;3.67;;;3.45;;
12788;SDS011;6458;42.710;23.192;2023-02-07T00:06:58;3.50;;;3.30;;
12788;SDS011;6458;42.710;23.192;2023-02-07T00:09:25;4.47;;;4.13;;
12788;SDS011;6458;42.710;23.192;2023-02-07T00:11:53;6.63;;;4.95;;
12788;SDS011;6458;42.710;23.192;2023-02-07T00:14:20;3.85;;;3.38;;
12788;SDS011;6458;42.710;23.192;2023-02-07T00:16:47;4.78;;;4.25;;
12788;SDS011;6458;42.710;23.192;2023-02-07T00:19:14;4.53;;;4.13;;
12788;SDS011;6458;42.710;23.192;2023-02-07T00:21:40;5.72;;;5.20;;
12788;SDS011;6458;42.710;23.192;2023-02-07T00:24:07;7.25;;;5.20;;
12788;SDS011;6458;42.710;23.192;2023-02-07T00:26:34;2.25;;;2.25;;
12788;SDS011;6458;42.710;23.192;2023-02-07T00:29:02;6.13;;;5.53;;
12788;SDS011;6458;42.710;23.192;2023-02-07T00:31:29;4.00;;;3.70;;
12788;SDS011;6458;42.710;23.192;2023-02-07T00:33:57;4.60;;;3.90;;
12788;SDS011;6458;42.710;23.192;2023-02-07T00:36:25;4.20;;;3.47;;
12788;SDS011;6458;42.710;23.192;2023-02-07T00:38:54;4.18;;;3.88;;
12788;SDS011;6458;42.710;23.192;2023-02-07T00:41:21;3.40;;;3.30;;
12788;SDS011;6458;42.710;23.192;2023-02-07T00:43:48;5.75;;;5.25;;
12788;SDS011;6458;42.710;23.192;2023-02-07T00:46:16;3.75;;;3.05;;
12788;SDS011;6458;42.710;23.192;2023-02-07T00:48:43;3.78;;;3.47;;
12788;SDS011;6458;42.710;23.192;2023-02-07T00:51:10;3.75;;;3.38;;
12788;SDS011;6458;42.710;23.192;2023-02-07T00:53:38;5.90;;;5.22;;
12788;SDS011;6458;42.710;23.192;2023-02-07T00:56:05;4.28;;;3.88;;
12788;SDS011;6458;42.710;23.192;2023-02-07T00:58:32;3.70;;;3.50;;
12788;SDS011;6458;42.710;23.192;2023-02-07T01:00:58;5.00;;;4.28;;
12788;SDS011;6458;42.710;23.192;2023-02-07T01:03:27;4.40;;;3.72;;
12788;SDS011;6458;42.710;23.192;2023-02-07T01:05:54;8.52;;;5.80;;
12788;SDS011;6458;42.710;23.192;2023-02-07T01:08:20;3.95;;;3.67;;
12788;SDS011;6458;42.710;23.192;2023-02-07T01:10:47;2.65;;;2.55;;
12788;SDS011;6458;42.710;23.192;2023-02-07T01:13:14;3.67;;;3.53;;
12788;SDS011;6458;42.710;23.192;2023-02-07T01:15:42;3.50;;;3.20;;
12788;SDS011;6458;42.710;23.192;2023-02-07T01:18:09;3.75;;;3.45;;
12788;SDS011;6458;42.710;23.192;2023-02-07T01:20:37;5.88;;;4.50;;
12788;SDS011;6458;42.710;23.192;2023-02-07T01:23:04;4.13;;;3.75;;
12788;SDS011;6458;42.710;23.192;2023-02-07T01:25:32;4.88;;;4.43;;
12788;SDS011;6458;42.710;23.192;2023-02-07T01:27:59;4.18;;;3.95;;
12788;SDS011;6458;42.710;23.192;2023-02-07T01:30:26;4.25;;;4.03;;
12788;SDS011;6458;42.710;23.192;2023-02-07T01:32:53;4.68;;;3.80;;
12788;SDS011;6458;42.710;23.192;2023-02-07T01:35:19;3.90;;;3.60;;
12788;SDS011;6458;42.710;23.192;2023-02-07T01:37:48;3.80;;;3.60;;
12788;SDS011;6458;42.710;23.192;2023-02-07T01:40:14;4.47;;;4.07;;
12788;SDS011;6458;42.710;23.192;2023-02-07T01:42:41;4.45;;;4.15;;
12788;SDS011;6458;42.710;23.192;2023-02-07T01:45:21;3.17;;;2.97;;
12788;SDS011;6458;42.710;23.192;2023-02-07T01:47:48;6.05;;;5.40;;
12788;SDS011;6458;42.710;23.192;2023-02-07T01:50:15;8.38;;;5.90;;
12788;SDS011;6458;42.710;23.192;2023-02-07T01:52:42;6.07;;;5.00;;
12788;SDS011;6458;42.710;23.192;2023-02-07T01:55:11;5.13;;;4.72;;
12788;SDS011;6458;42.710;23.192;2023-02-07T01:57:38;4.95;;;4.60;;
12788;SDS011;6458;42.710;23.192;2023-02-07T02:00:06;6.05;;;5.45;;
12788;SDS011;6458;42.710;23.192;2023-02-07T02:05:25;5.78;;;5.10;;
12788;SDS011;6458;42.710;23.192;2023-02-07T02:07:52;7.68;;;5.53;;
12788;SDS011;6458;42.710;23.192;2023-02-07T02:10:22;4.93;;;4.00;;
12788;SDS011;6458;42.710;23.192;2023-02-07T02:12:52;7.57;;;5.28;;
12788;SDS011;6458;42.710;23.192;2023-02-07T02:15:29;5.95;;;4.75;;
12788;SDS011;6458;42.710;23.192;2023-02-07T02:23:33;3.35;;;3.25;;
12788;SDS011;6458;42.710;23.192;2023-02-07T02:26:15;4.13;;;3.90;;
12788;SDS011;6458;42.710;23.192;2023-02-07T02:28:52;9.48;;;6.18;;
12788;SDS011;6458;42.710;23.192;2023-02-07T02:34:12;7.90;;;4.57;;
12788;SDS011;6458;42.710;23.192;2023-02-07T02:36:44;5.07;;;4.55;;
12788;SDS011;6458;42.710;23.192;2023-02-07T02:39:14;10.00;;;5.05;;
12788;SDS011;6458;42.710;23.192;2023-02-07T02:41:46;9.15;;;6.50;;
12788;SDS011;6458;42.710;23.192;2023-02-07T02:44:16;6.80;;;5.57;;
12788;SDS011;6458;42.710;23.192;2023-02-07T02:46:43;3.10;;;2.90;;
12788;SDS011;6458;42.710;23.192;2023-02-07T02:49:13;4.28;;;3.97;;
12788;SDS011;6458;42.710;23.192;2023-02-07T02:51:40;5.10;;;4.70;;
12788;SDS011;6458;42.710;23.192;2023-02-07T02:56:51;6.57;;;5.93;;
12788;SDS011;6458;42.710;23.192;2023-02-07T02:59:28;5.35;;;4.05;;
12788;SDS011;6458;42.710;23.192;2023-02-07T03:02:01;6.75;;;5.22;;
12788;SDS011;6458;42.710;23.192;2023-02-07T03:04:46;6.20;;;5.07;;
12788;SDS011;6458;42.710;23.192;2023-02-07T03:07:19;8.65;;;4.43;;
12788;SDS011;6458;42.710;23.192;2023-02-07T03:09:48;9.60;;;6.22;;
12788;SDS011;6458;42.710;23.192;2023-02-07T03:12:19;8.63;;;6.05;;
12788;SDS011;6458;42.710;23.192;2023-02-07T03:14:50;6.10;;;5.20;;
12788;SDS011;6458;42.710;23.192;2023-02-07T03:17:19;4.15;;;3.75;;
12788;SDS011;6458;42.710;23.192;2023-02-07T03:19:50;3.60;;;3.40;;
12788;SDS011;6458;42.710;23.192;2023-02-07T03:22:19;4.82;;;3.78;;
12788;SDS011;6458;42.710;23.192;2023-02-07T03:24:48;8.27;;;6.10;;
12788;SDS011;6458;42.710;23.192;2023-02-07T03:27:17;5.78;;;4.45;;
12788;SDS011;6458;42.710;23.192;2023-02-07T03:29:46;8.25;;;5.85;;
12788;SDS011;6458;42.710;23.192;2023-02-07T03:32:13;3.08;;;2.88;;
12788;SDS011;6458;42.710;23.192;2023-02-07T03:34:43;4.93;;;4.63;;
12788;SDS011;6458;42.710;23.192;2023-02-07T03:37:14;3.67;;;3.38;;
12788;SDS011;6458;42.710;23.192;2023-02-07T03:39:42;4.50;;;4.10;;
12788;SDS011;6458;42.710;23.192;2023-02-07T03:42:11;5.40;;;3.55;;
12788;SDS011;6458;42.710;23.192;2023-02-07T03:44:41;4.60;;;3.78;;
12788;SDS011;6458;42.710;23.192;2023-02-07T03:47:08;3.58;;;3.40;;
12788;SDS011;6458;42.710;23.192;2023-02-07T03:49:35;4.25;;;3.95;;
12788;SDS011;6458;42.710;23.192;2023-02-07T03:52:01;7.07;;;4.03;;
12788;SDS011;6458;42.710;23.192;2023-02-07T03:54:29;4.28;;;3.92;;
12788;SDS011;6458;42.710;23.192;2023-02-07T03:56:56;4.65;;;4.25;;
12788;SDS011;6458;42.710;23.192;2023-02-07T03:59:23;3.90;;;3.72;;
12788;SDS011;6458;42.710;23.192;2023-02-07T04:01:50;5.30;;;4.90;;
12788;SDS011;6458;42.710;23.192;2023-02-07T04:04:17;3.58;;;3.38;;
12788;SDS011;6458;42.710;23.192;2023-02-07T04:06:43;6.35;;;5.15;;
12788;SDS011;6458;42.710;23.192;2023-02-07T04:09:10;6.57;;;5.55;;
12788;SDS011;6458;42.710;23.192;2023-02-07T04:11:38;5.07;;;4.45;;
12788;SDS011;6458;42.710;23.192;2023-02-07T04:14:05;5.22;;;4.72;;
12788;SDS011;6458;42.710;23.192;2023-02-07T04:16:32;4.50;;;4.15;;
12788;SDS011;6458;42.710;23.192;2023-02-07T04:18:59;7.18;;;5.10;;
12788;SDS011;6458;42.710;23.192;2023-02-07T04:21:25;4.15;;;3.83;;
12788;SDS011;6458;42.710;23.192;2023-02-07T04:23:52;7.22;;;4.32;;
12788;SDS011;6458;42.710;23.192;2023-02-07T04:26:19;7.57;;;5.38;;
12788;SDS011;6458;42.710;23.192;2023-02-07T04:28:47;6.18;;;5.68;;
12788;SDS011;6458;42.710;23.192;2023-02-07T04:31:14;5.07;;;4.25;;
12788;SDS011;6458;42.710;23.192;2023-02-07T04:33:40;7.68;;;4.47;;
12788;SDS011;6458;42.710;23.192;2023-02-07T04:36:08;8.05;;;4.78;;
12788;SDS011;6458;42.710;23.192;2023-02-07T04:38:34;5.13;;;4.70;;
12788;SDS011;6458;42.710;23.192;2023-02-07T04:41:02;7.47;;;5.60;;
12788;SDS011;6458;42.710;23.192;2023-02-07T04:43:29;5.28;;;4.85;;
12788;SDS011;6458;42.710;23.192;2023-02-07T04:45:57;6.65;;;5.18;;
12788;SDS011;6458;42.710;23.192;2023-02-07T04:48:24;7.55;;;4.78;;
12788;SDS011;6458;42.710;23.192;2023-02-07T04:50:51;4.03;;;3.83;;
12788;SDS011;6458;42.710;23.192;2023-02-07T04:53:18;5.28;;;4.97;;
12788;SDS011;6458;42.710;23.192;2023-02-07T04:55:46;5.20;;;4.80;;
12788;SDS011;6458;42.710;23.192;2023-02-07T04:58:13;5.88;;;4.82;;
12788;SDS011;6458;42.710;23.192;2023-02-07T05:00:40;8.00;;;4.63;;
12788;SDS011;6458;42.710;23.192;2023-02-07T05:03:10;5.85;;;5.43;;
12788;SDS011;6458;42.710;23.192;2023-02-07T05:05:37;5.10;;;4.63;;
12788;SDS011;6458;42.710;23.192;2023-02-07T05:08:04;7.45;;;5.78;;
12788;SDS011;6458;42.710;23.192;2023-02-07T05:10:31;6.78;;;5.07;;
12788;SDS011;6458;42.710;23.192;2023-02-07T05:12:58;9.35;;;6.00;;
12788;SDS011;6458;42.710;23.192;2023-02-07T05:15:25;5.88;;;4.68;;
12788;SDS011;6458;42.710;23.192;2023-02-07T05:17:52;6.95;;;5.40;;
12788;SDS011;6458;42.710;23.192;2023-02-07T05:20:20;7.32;;;5.25;;
12788;SDS011;6458;42.710;23.192;2023-02-07T05:22:46;5.60;;;5.10;;
12788;SDS011;6458;42.710;23.192;2023-02-07T05:25:15;7.82;;;5.40;;
12788;SDS011;6458;42.710;23.192;2023-02-07T05:27:41;6.40;;;5.45;;
12788;SDS011;6458;42.710;23.192;2023-02-07T05:30:09;8.20;;;6.20;;
12788;SDS011;6458;42.710;23.192;2023-02-07T05:32:36;5.63;;;5.13;;
12788;SDS011;6458;42.710;23.192;2023-02-07T05:35:21;5.75;;;5.32;;
12788;SDS011;6458;42.710;23.192;2023-02-07T05:37:48;8.82;;;6.32;;
12788;SDS011;6458;42.710;23.192;2023-02-07T05:40:15;10.25;;;6.07;;
12788;SDS011;6458;42.710;23.192;2023-02-07T05:42:41;5.80;;;5.20;;
12788;SDS011;6458;42.710;23.192;2023-02-07T05:45:08;6.40;;;5.22;;
12788;SDS011;6458;42.710;23.192;2023-02-07T05:53:25;5.15;;;4.68;;
12788;SDS011;6458;42.710;23.192;2023-02-07T05:56:24;9.98;;;6.15;;
12788;SDS011;6458;42.710;23.192;2023-02-07T06:02:16;6.07;;;5.47;;
12788;SDS011;6458;42.710;23.192;2023-02-07T06:04:48;5.60;;;4.60;;
12788;SDS011;6458;42.710;23.192;2023-02-07T06:07:15;5.25;;;4.82;;
12788;SDS011;6458;42.710;23.192;2023-02-07T06:09:43;7.93;;;6.82;;
12788;SDS011;6458;42.710;23.192;2023-02-07T06:12:10;6.45;;;4.93;;
12788;SDS011;6458;42.710;23.192;2023-02-07T06:14:37;8.20;;;4.82;;
12788;SDS011;6458;42.710;23.192;2023-02-07T06:17:12;5.47;;;4.53;;
12788;SDS011;6458;42.710;23.192;2023-02-07T06:19:41;5.25;;;4.70;;
12788;SDS011;6458;42.710;23.192;2023-02-07T06:22:12;6.43;;;4.80;;
12788;SDS011;6458;42.710;23.192;2023-02-07T06:24:44;5.43;;;4.97;;
12788;SDS011;6458;42.710;23.192;2023-02-07T06:27:12;5.30;;;4.65;;
12788;SDS011;6458;42.710;23.192;2023-02-07T06:29:39;5.80;;;5.30;;
12788;SDS011;6458;42.710;23.192;2023-02-07T06:32:08;6.13;;;5.38;;
12788;SDS011;6458;42.710;23.192;2023-02-07T06:34:38;7.53;;;5.88;;
12788;SDS011;6458;42.710;23.192;2023-02-07T06:37:04;7.32;;;5.13;;
12788;SDS011;6458;42.710;23.192;2023-02-07T06:42:41;8.48;;;4.68;;
12788;SDS011;6458;42.710;23.192;2023-02-07T06:45:08;6.57;;;5.38;;
12788;SDS011;6458;42.710;23.192;2023-02-07T06:47:37;8.05;;;6.70;;
12788;SDS011;6458;42.710;23.192;2023-02-07T06:50:04;6.32;;;5.65;;
12788;SDS011;6458;42.710;23.192;2023-02-07T06:52:40;16.25;;;5.45;;
12788;SDS011;6458;42.710;23.192;2023-02-07T06:55:09;7.82;;;6.82;;
12788;SDS011;6458;42.710;23.192;2023-02-07T06:57:46;7.03;;;6.03;;
12788;SDS011;6458;42.710;23.192;2023-02-07T07:00:15;6.60;;;5.93;;
12788;SDS011;6458;42.710;23.192;2023-02-07T07:02:44;6.90;;;5.95;;
12788;SDS011;6458;42.710;23.192;2023-02-07T07:05:14;8.30;;;6.38;;
12788;SDS011;6458;42.710;23.192;2023-02-07T07:07:44;8.43;;;7.20;;
12788;SDS011;6458;42.710;23.192;2023-02-07T07:10:14;6.63;;;6.13;;
12788;SDS011;6458;42.710;23.192;2023-02-07T07:13:06;8.40;;;6.15;;
12788;SDS011;6458;42.710;23.192;2023-02-07T07:18:15;9.18;;;7.03;;
12788;SDS011;6458;42.710;23.192;2023-02-07T07:20:42;7.38;;;6.25;;
12788;SDS011;6458;42.710;23.192;2023-02-07T07:23:09;8.07;;;7.03;;
12788;SDS011;6458;42.710;23.192;2023-02-07T07:25:40;9.00;;;6.93;;
12788;SDS011;6458;42.710;23.192;2023-02-07T07:28:11;7.60;;;6.68;;
12788;SDS011;6458;42.710;23.192;2023-02-07T07:30:38;11.30;;;7.47;;
12788;SDS011;6458;42.710;23.192;2023-02-07T07:33:07;7.55;;;6.38;;
12788;SDS011;6458;42.710;23.192;2023-02-07T07:35:39;10.88;;;8.20;;
12788;SDS011;6458;42.710;23.192;2023-02-07T07:38:10;7.78;;;7.05;;
12788;SDS011;6458;42.710;23.192;2023-02-07T07:40:37;11.68;;;8.32;;
12788;SDS011;6458;42.710;23.192;2023-02-07T07:43:06;9.93;;;7.63;;
12788;SDS011;6458;42.710;23.192;2023-02-07T07:45:34;11.88;;;7.10;;
12788;SDS011;6458;42.710;23.192;2023-02-07T07:48:01;8.02;;;6.90;;
12788;SDS011;6458;42.710;23.192;2023-02-07T07:50:30;12.40;;;7.75;;
12788;SDS011;6458;42.710;23.192;2023-02-07T07:52:57;9.73;;;7.43;;
12788;SDS011;6458;42.710;23.192;2023-02-07T07:55:30;13.35;;;9.02;;
12788;SDS011;6458;42.710;23.192;2023-02-07T07:57:57;9.18;;;7.22;;
12788;SDS011;6458;42.710;23.192;2023-02-07T08:00:38;13.50;;;7.90;;
12788;SDS011;6458;42.710;23.192;2023-02-07T08:03:07;8.23;;;6.93;;
12788;SDS011;6458;42.710;23.192;2023-02-07T08:05:33;9.50;;;7.40;;
12788;SDS011;6458;42.710;23.192;2023-02-07T08:08:00;11.03;;;8.73;;
12788;SDS011;6458;42.710;23.192;2023-02-07T08:10:30;14.07;;;10.17;;
12788;SDS011;6458;42.710;23.192;2023-02-07T08:12:57;12.63;;;9.77;;
12788;SDS011;6458;42.710;23.192;2023-02-07T08:15:24;11.60;;;8.80;;
12788;SDS011;6458;42.710;23.192;2023-02-07T08:17:52;12.53;;;8.93;;
12788;SDS011;6458;42.710;23.192;2023-02-07T08:20:19;12.73;;;9.43;;
12788;SDS011;6458;42.710;23.192;2023-02-07T08:22:46;10.77;;;8.67;;
12788;SDS011;6458;42.710;23.192;2023-02-07T08:25:12;14.87;;;10.60;;
12788;SDS011;6458;42.710;23.192;2023-02-07T08:27:39;16.97;;;10.70;;
12788;SDS011;6458;42.710;23.192;2023-02-07T08:30:06;14.57;;;10.40;;
12788;SDS011;6458;42.710;23.192;2023-02-07T08:32:33;12.73;;;10.23;;
12788;SDS011;6458;42.710;23.192;2023-02-07T08:35:05;11.50;;;9.67;;
12788;SDS011;6458;42.710;23.192;2023-02-07T08:37:32;13.57;;;9.47;;
12788;SDS011;6458;42.710;23.192;2023-02-07T08:40:02;11.37;;;7.97;;
12788;SDS011;6458;42.710;23.192;2023-02-07T08:42:29;12.40;;;10.00;;
12788;SDS011;6458;42.710;23.192;2023-02-07T08:44:56;9.30;;;6.53;;
12788;SDS011;6458;42.710;23.192;2023-02-07T08:47:22;11.73;;;8.27;;
12788;SDS011;6458;42.710;23.192;2023-02-07T08:49:49;10.57;;;8.03;;
12788;SDS011;6458;42.710;23.192;2023-02-07T08:52:17;14.00;;;9.70;;
12788;SDS011;6458;42.710;23.192;2023-02-07T08:54:44;11.63;;;9.60;;
12788;SDS011;6458;42.710;23.192;2023-02-07T08:57:13;11.97;;;9.20;;
12788;SDS011;6458;42.710;23.192;2023-02-07T08:59:46;12.63;;;9.30;;
12788;SDS011;6458;42.710;23.192;2023-02-07T09:05:15;13.33;;;10.03;;
12788;SDS011;6458;42.710;23.192;2023-02-07T09:07:46;12.67;;;10.03;;
12788;SDS011;6458;42.710;23.192;2023-02-07T09:10:13;11.17;;;9.73;;
12788;SDS011;6458;42.710;23.192;2023-02-07T09:12:40;12.50;;;9.57;;
12788;SDS011;6458;42.710;23.192;2023-02-07T09:15:07;9.97;;;7.60;;
12788;SDS011;6458;42.710;23.192;2023-02-07T09:18:58;7.57;;;6.23;;
12788;SDS011;6458;42.710;23.192;2023-02-07T09:20:51;10.70;;;8.20;;
12788;SDS011;6458;42.710;23.192;2023-02-07T09:23:19;10.37;;;6.90;;
12788;SDS011;6458;42.710;23.192;2023-02-07T09:25:46;12.13;;;9.93;;
12788;SDS011;6458;42.710;23.192;2023-02-07T09:28:13;11.97;;;9.93;;
12788;SDS011;6458;42.710;23.192;2023-02-07T09:30:40;13.03;;;10.80;;
12788;SDS011;6458;42.710;23.192;2023-02-07T09:33:07;12.60;;;9.57;;
12788;SDS011;6458;42.710;23.192;2023-02-07T09:35:37;11.83;;;8.83;;
12788;SDS011;6458;42.710;23.192;2023-02-07T09:38:04;12.23;;;8.43;;
12788;SDS011;6458;42.710;23.192;2023-02-07T09:40:32;8.70;;;5.83;;
12788;SDS011;6458;42.710;23.192;2023-02-07T09:43:04;11.40;;;8.43;;
12788;SDS011;6458;42.710;23.192;2023-02-07T09:45:36;4.30;;;3.90;;
12788;SDS011;6458;42.710;23.192;2023-02-07T09:48:06;6.88;;;5.40;;
12788;SDS011;6458;42.710;23.192;2023-02-07T09:50:38;10.77;;;6.75;;
12788;SDS011;6458;42.710;23.192;2023-02-07T09:53:08;6.78;;;5.00;;
12788;SDS011;6458;42.710;23.192;2023-02-07T09:55:44;9.43;;;6.15;;
12788;SDS011;6458;42.710;23.192;2023-02-07T09:58:39;6.80;;;5.97;;
12788;SDS011;6458;42.710;23.192;2023-02-07T10:01:25;9.25;;;7.10;;
12788;SDS011;6458;42.710;23.192;2023-02-07T10:04:12;8.30;;;5.97;;
12788;SDS011;6458;42.710;23.192;2023-02-07T10:06:42;7.43;;;5.77;;
12788;SDS011;6458;42.710;23.192;2023-02-07T10:09:12;13.37;;;7.67;;
12788;SDS011;6458;42.710;23.192;2023-02-07T10:11:47;7.03;;;6.33;;
12788;SDS011;6458;42.710;23.192;2023-02-07T10:14:22;8.93;;;6.70;;
12788;SDS011;6458;42.710;23.192;2023-02-07T10:17:04;11.97;;;8.60;;
12788;SDS011;6458;42.710;23.192;2023-02-07T10:19:38;9.50;;;7.53;;
12788;SDS011;6458;42.710;23.192;2023-02-07T10:22:10;5.87;;;5.30;;
12788;SDS011;6458;42.710;23.192;2023-02-07T10:24:46;9.43;;;6.63;;
12788;SDS011;6458;42.710;23.192;2023-02-07T10:27:20;7.27;;;6.43;;
12788;SDS011;6458;42.710;23.192;2023-02-07T10:29:50;12.93;;;9.20;;
12788;SDS011;6458;42.710;23.192;2023-02-07T10:32:24;11.77;;;8.63;;
12788;SDS011;6458;42.710;23.192;2023-02-07T10:34:52;12.87;;;9.70;;
12788;SDS011;6458;42.710;23.192;2023-02-07T10:37:21;12.03;;;8.77;;
12788;SDS011;6458;42.710;23.192;2023-02-07T10:39:50;12.40;;;8.67;;
12788;SDS011;6458;42.710;23.192;2023-02-07T10:42:20;10.57;;;7.47;;
12788;SDS011;6458;42.710;23.192;2023-02-07T10:44:48;10.40;;;9.00;;
12788;SDS011;6458;42.710;23.192;2023-02-07T10:47:15;12.07;;;8.80;;
12788;SDS011;6458;42.710;23.192;2023-02-07T10:49:43;10.90;;;8.23;;
12788;SDS011;6458;42.710;23.192;2023-02-07T10:52:13;10.40;;;8.63;;
12788;SDS011;6458;42.710;23.192;2023-02-07T10:54:48;9.63;;;8.57;;
12788;SDS011;6458;42.710;23.192;2023-02-07T10:57:16;10.93;;;8.50;;
12788;SDS011;6458;42.710;23.192;2023-02-07T10:59:45;9.50;;;7.33;;
12788;SDS011;6458;42.710;23.192;2023-02-07T11:05:03;10.70;;;8.53;;
12788;SDS011;6458;42.710;23.192;2023-02-07T11:07:31;10.10;;;9.00;;
12788;SDS011;6458;42.710;23.192;2023-02-07T11:10:11;13.57;;;8.97;;
12788;SDS011;6458;42.710;23.192;2023-02-07T11:12:43;10.60;;;8.00;;
12788;SDS011;6458;42.710;23.192;2023-02-07T11:15:16;9.30;;;8.37;;
12788;SDS011;6458;42.710;23.192;2023-02-07T11:17:45;9.73;;;7.37;;
12788;SDS011;6458;42.710;23.192;2023-02-07T11:20:15;9.07;;;8.17;;
12788;SDS011;6458;42.710;23.192;2023-02-07T11:22:44;11.80;;;9.07;;
12788;SDS011;6458;42.710;23.192;2023-02-07T11:25:11;11.60;;;8.50;;
12788;SDS011;6458;42.710;23.192;2023-02-07T11:27:38;12.63;;;8.63;;
12788;SDS011;6458;42.710;23.192;2023-02-07T11:30:07;8.40;;;7.53;;
12788;SDS011;6458;42.710;23.192;2023-02-07T11:32:36;8.87;;;7.23;;
12788;SDS011;6458;42.710;23.192;2023-02-07T11:35:04;10.73;;;6.90;;
12788;SDS011;6458;42.710;23.192;2023-02-07T11:37:33;9.73;;;7.50;;
12788;SDS011;6458;42.710;23.192;2023-02-07T11:40:20;9.30;;;7.73;;
12788;SDS011;6458;42.710;23.192;2023-02-07T11:42:47;11.77;;;8.00;;
12788;SDS011;6458;42.710;23.192;2023-02-07T11:45:15;10.20;;;7.67;;
12788;SDS011;6458;42.710;23.192;2023-02-07T11:47:44;9.47;;;8.17;;
12788;SDS011;6458;42.710;23.192;2023-02-07T11:50:15;12.37;;;7.87;;
12788;SDS011;6458;42.710;23.192;2023-02-07T11:52:48;10.93;;;7.90;;
12788;SDS011;6458;42.710;23.192;2023-02-07T11:55:17;10.20;;;7.87;;
12788;SDS011;6458;42.710;23.192;2023-02-07T11:57:46;11.07;;;7.87;;
12788;SDS011;6458;42.710;23.192;2023-02-07T12:00:15;12.10;;;9.43;;
12788;SDS011;6458;42.710;23.192;2023-02-07T12:02:47;12.47;;;9.07;;
12788;SDS011;6458;42.710;23.192;2023-02-07T12:05:17;13.67;;;9.20;;
12788;SDS011;6458;42.710;23.192;2023-02-07T12:07:45;13.60;;;8.83;;
12788;SDS011;6458;42.710;23.192;2023-02-07T12:10:13;9.33;;;8.00;;
12788;SDS011;6458;42.710;23.192;2023-02-07T12:12:43;12.83;;;9.07;;
12788;SDS011;6458;42.710;23.192;2023-02-07T12:15:12;8.90;;;7.13;;
12788;SDS011;6458;42.710;23.192;2023-02-07T12:17:41;15.67;;;9.47;;
12788;SDS011;6458;42.710;23.192;2023-02-07T12:20:18;12.67;;;9.07;;
12788;SDS011;6458;42.710;23.192;2023-02-07T12:22:46;10.17;;;7.23;;
12788;SDS011;6458;42.710;23.192;2023-02-07T12:25:17;10.17;;;7.60;;
12788;SDS011;6458;42.710;23.192;2023-02-07T12:27:46;11.87;;;9.43;;
12788;SDS011;6458;42.710;23.192;2023-02-07T12:30:15;13.20;;;8.90;;
12788;SDS011;6458;42.710;23.192;2023-02-07T12:32:46;10.70;;;8.90;;
12788;SDS011;6458;42.710;23.192;2023-02-07T12:35:17;12.43;;;8.27;;
12788;SDS011;6458;42.710;23.192;2023-02-07T12:37:48;9.83;;;7.97;;
12788;SDS011;6458;42.710;23.192;2023-02-07T12:40:20;8.73;;;6.97;;
12788;SDS011;6458;42.710;23.192;2023-02-07T12:42:51;12.30;;;9.23;;
12788;SDS011;6458;42.710;23.192;2023-02-07T12:45:24;12.37;;;9.03;;
12788;SDS011;6458;42.710;23.192;2023-02-07T12:47:53;12.73;;;9.17;;
12788;SDS011;6458;42.710;23.192;2023-02-07T12:50:31;11.97;;;9.10;;
12788;SDS011;6458;42.710;23.192;2023-02-07T12:53:17;10.40;;;8.17;;
12788;SDS011;6458;42.710;23.192;2023-02-07T12:55:48;9.70;;;7.93;;
12788;SDS011;6458;42.710;23.192;2023-02-07T12:58:23;12.97;;;8.87;;
12788;SDS011;6458;42.710;23.192;2023-02-07T13:00:55;10.17;;;8.77;;
12788;SDS011;6458;42.710;23.192;2023-02-07T13:03:26;9.73;;;7.97;;
12788;SDS011;6458;42.710;23.192;2023-02-07T13:06:00;11.60;;;8.77;;
12788;SDS011;6458;42.710;23.192;2023-02-07T13:08:32;10.13;;;8.00;;
12788;SDS011;6458;42.710;23.192;2023-02-07T13:11:04;10.93;;;8.23;;
12788;SDS011;6458;42.710;23.192;2023-02-07T13:13:34;10.00;;;8.33;;
12788;SDS011;6458;42.710;23.192;2023-02-07T13:16:04;12.33;;;9.03;;
12788;SDS011;6458;42.710;23.192;2023-02-07T13:18:38;12.60;;;9.67;;
12788;SDS011;6458;42.710;23.192;2023-02-07T13:21:10;11.20;;;8.40;;
12788;SDS011;6458;42.710;23.192;2023-02-07T13:23:41;10.37;;;7.17;;
12788;SDS011;6458;42.710;23.192;2023-02-07T13:26:11;10.17;;;7.47;;
12788;SDS011;6458;42.710;23.192;2023-02-07T13:28:40;9.70;;;6.10;;
12788;SDS011;6458;42.710;23.192;2023-02-07T13:31:08;8.97;;;7.43;;
12788;SDS011;6458;42.710;23.192;2023-02-07T13:33:37;10.83;;;7.90;;
12788;SDS011;6458;42.710;23.192;2023-02-07T13:36:06;9.93;;;7.93;;
12788;SDS011;6458;42.710;23.192;2023-02-07T13:38:39;8.73;;;7.30;;
12788;SDS011;6458;42.710;23.192;2023-02-07T13:41:10;9.33;;;7.43;;
12788;SDS011;6458;42.710;23.192;2023-02-07T13:43:45;7.30;;;6.50;;
12788;SDS011;6458;42.710;23.192;2023-02-07T13:46:18;11.90;;;8.40;;
12788;SDS011;6458;42.710;23.192;2023-02-07T13:48:45;11.70;;;9.07;;
12788;SDS011;6458;42.710;23.192;2023-02-07T13:51:16;9.50;;;8.37;;
12788;SDS011;6458;42.710;23.192;2023-02-07T13:53:50;9.93;;;8.00;;
12788;SDS011;6458;42.710;23.192;2023-02-07T13:56:29;9.27;;;8.20;;
12788;SDS011;6458;42.710;23.192;2023-02-07T13:59:26;14.03;;;9.70;;
12788;SDS011;6458;42.710;23.192;2023-02-07T14:02:05;10.37;;;7.23;;
12788;SDS011;6458;42.710;23.192;2023-02-07T14:04:44;8.43;;;7.03;;
12788;SDS011;6458;42.710;23.192;2023-02-07T14:07:13;9.77;;;8.03;;
12788;SDS011;6458;42.710;23.192;2023-02-07T14:09:47;12.83;;;8.37;;
12788;SDS011;6458;42.710;23.192;2023-02-07T14:12:16;10.23;;;8.43;;
12788;SDS011;6458;42.710;23.192;2023-02-07T14:14:43;8.17;;;7.37;;
12788;SDS011;6458;42.710;23.192;2023-02-07T14:17:11;11.23;;;7.60;;
12788;SDS011;6458;42.710;23.192;2023-02-07T14:19:51;12.30;;;8.60;;
12788;SDS011;6458;42.710;23.192;2023-02-07T14:22:22;11.30;;;8.00;;
12788;SDS011;6458;42.710;23.192;2023-02-07T14:27:36;9.32;;;7.53;;
12788;SDS011;6458;42.710;23.192;2023-02-07T14:35:36;8.60;;;6.95;;
12788;SDS011;6458;42.710;23.192;2023-02-07T14:38:18;10.68;;;8.27;;
12788;SDS011;6458;42.710;23.192;2023-02-07T14:40:50;11.10;;;7.97;;
12788;SDS011;6458;42.710;23.192;2023-02-07T14:43:24;13.18;;;8.65;;
12788;SDS011;6458;42.710;23.192;2023-02-07T14:46:02;12.25;;;7.97;;
12788;SDS011;6458;42.710;23.192;2023-02-07T14:48:31;9.27;;;7.03;;
12788;SDS011;6458;42.710;23.192;2023-02-07T14:51:01;11.35;;;8.57;;
12788;SDS011;6458;42.710;23.192;2023-02-07T14:53:28;11.00;;;7.82;;
12788;SDS011;6458;42.710;23.192;2023-02-07T14:55:57;10.68;;;7.55;;
12788;SDS011;6458;42.710;23.192;2023-02-07T14:58:33;13.80;;;8.38;;
12788;SDS011;6458;42.710;23.192;2023-02-07T15:01:01;12.18;;;8.90;;
12788;SDS011;6458;42.710;23.192;2023-02-07T15:03:28;12.77;;;8.98;;
12788;SDS011;6458;42.710;23.192;2023-02-07T15:05:56;14.85;;;9.20;;
12788;SDS011;6458;42.710;23.192;2023-02-07T15:08:27;10.18;;;6.95;;
12788;SDS011;6458;42.710;23.192;2023-02-07T15:10:55;8.48;;;6.38;;
12788;SDS011;6458;42.710;23.192;2023-02-07T15:13:23;11.05;;;7.70;;
12788;SDS011;6458;42.710;23.192;2023-02-07T15:15:53;11.55;;;7.68;;
12788;SDS011;6458;42.710;23.192;2023-02-07T15:18:21;15.85;;;8.52;;
12788;SDS011;6458;42.710;23.192;2023-02-07T15:20:49;10.68;;;7.07;;
12788;SDS011;6458;42.710;23.192;2023-02-07T15:23:17;14.30;;;8.43;;
12788;SDS011;6458;42.710;23.192;2023-02-07T15:25:44;11.75;;;8.35;;
12788;SDS011;6458;42.710;23.192;2023-02-07T15:28:19;7.90;;;7.10;;
12788;SDS011;6458;42.710;23.192;2023-02-07T15:30:54;11.98;;;8.95;;
12788;SDS011;6458;42.710;23.192;2023-02-07T15:33:21;8.55;;;7.03;;
12788;SDS011;6458;42.710;23.192;2023-02-07T15:35:48;11.57;;;8.10;;
12788;SDS011;6458;42.710;23.192;2023-02-07T15:38:16;10.88;;;8.02;;
12788;SDS011;6458;42.710;23.192;2023-02-07T15:40:43;8.52;;;6.85;;
12788;SDS011;6458;42.710;23.192;2023-02-07T15:43:22;10.23;;;7.82;;